Terminal Aerodrome Forecast
Issued by NWS

Home | Current Version | Previous Version | Text Only | Print | Product List | Glossary On
Versions: 1 2 3 4 5 6 7 8 9 10 11 12 13 14 15 16 17 18 19 20 21 22 23
000
FTUS43 KAPX 271946 CCA
TAFTVC
TAF COR
KTVC 271946Z 2720/2818 24008G16KT 4SM -RA BR BKN012 OVC020
      WS020/22045KT
      TEMPO 2720/2721 3SM -RA BR
     FM272100 27012G18KT P6SM VCSH OVC015
     FM272300 27012G18KT P6SM VCSH OVC015
     FM280000 30009KT P6SM BKN015
     FM280600 28008KT P6SM BKN015=

USA.gov is the U.S. government's official web portal to all federal, state and local government web resources and services.